sensor_id;sensor_type;location;lat;lon;timestamp;P1;durP1;ratioP1;P2;durP2;ratioP2
12958;SDS011;6544;51.666;6.634;2022-11-20T00:01:27;16.83;;;11.43;;
12958;SDS011;6544;51.666;6.634;2022-11-20T00:03:54;15.83;;;11.50;;
12958;SDS011;6544;51.666;6.634;2022-11-20T00:06:24;14.83;;;11.67;;
12958;SDS011;6544;51.666;6.634;2022-11-20T00:08:53;16.77;;;11.73;;
12958;SDS011;6544;51.666;6.634;2022-11-20T00:11:21;15.70;;;11.73;;
12958;SDS011;6544;51.666;6.634;2022-11-20T00:13:50;18.83;;;11.90;;
12958;SDS011;6544;51.666;6.634;2022-11-20T00:16:20;18.27;;;12.40;;
12958;SDS011;6544;51.666;6.634;2022-11-20T00:18:48;19.97;;;12.57;;
12958;SDS011;6544;51.666;6.634;2022-11-20T00:21:16;18.13;;;13.03;;
12958;SDS011;6544;51.666;6.634;2022-11-20T00:23:46;20.57;;;13.60;;
12958;SDS011;6544;51.666;6.634;2022-11-20T00:26:14;19.57;;;12.97;;
12958;SDS011;6544;51.666;6.634;2022-11-20T00:28:42;16.90;;;12.40;;
12958;SDS011;6544;51.666;6.634;2022-11-20T00:31:11;15.33;;;12.03;;
12958;SDS011;6544;51.666;6.634;2022-11-20T00:33:39;15.83;;;11.27;;
12958;SDS011;6544;51.666;6.634;2022-11-20T00:36:07;16.10;;;11.73;;
12958;SDS011;6544;51.666;6.634;2022-11-20T00:38:35;14.17;;;11.33;;
12958;SDS011;6544;51.666;6.634;2022-11-20T00:41:04;17.13;;;12.17;;
12958;SDS011;6544;51.666;6.634;2022-11-20T00:43:32;17.53;;;12.17;;
12958;SDS011;6544;51.666;6.634;2022-11-20T00:46:00;16.13;;;12.23;;
12958;SDS011;6544;51.666;6.634;2022-11-20T00:48:27;17.77;;;12.40;;
12958;SDS011;6544;51.666;6.634;2022-11-20T00:50:55;16.73;;;12.07;;
12958;SDS011;6544;51.666;6.634;2022-11-20T00:53:22;18.27;;;12.43;;
12958;SDS011;6544;51.666;6.634;2022-11-20T00:55:52;16.53;;;12.23;;
12958;SDS011;6544;51.666;6.634;2022-11-20T00:58:21;16.60;;;12.43;;
12958;SDS011;6544;51.666;6.634;2022-11-20T01:00:49;16.73;;;11.87;;
12958;SDS011;6544;51.666;6.634;2022-11-20T01:03:16;22.93;;;12.27;;
12958;SDS011;6544;51.666;6.634;2022-11-20T01:05:44;14.90;;;11.57;;
12958;SDS011;6544;51.666;6.634;2022-11-20T01:08:11;15.67;;;11.73;;
12958;SDS011;6544;51.666;6.634;2022-11-20T01:10:37;15.53;;;11.67;;
12958;SDS011;6544;51.666;6.634;2022-11-20T01:13:04;17.03;;;11.73;;
12958;SDS011;6544;51.666;6.634;2022-11-20T01:15:50;14.90;;;11.77;;
12958;SDS011;6544;51.666;6.634;2022-11-20T01:18:17;14.70;;;11.03;;
12958;SDS011;6544;51.666;6.634;2022-11-20T01:20:43;16.73;;;12.30;;
12958;SDS011;6544;51.666;6.634;2022-11-20T01:23:10;16.53;;;11.77;;
12958;SDS011;6544;51.666;6.634;2022-11-20T01:25:37;16.23;;;12.43;;
12958;SDS011;6544;51.666;6.634;2022-11-20T01:28:04;16.47;;;10.83;;
12958;SDS011;6544;51.666;6.634;2022-11-20T01:30:31;15.33;;;11.17;;
12958;SDS011;6544;51.666;6.634;2022-11-20T01:32:59;16.67;;;12.00;;
12958;SDS011;6544;51.666;6.634;2022-11-20T01:35:26;16.47;;;11.80;;
12958;SDS011;6544;51.666;6.634;2022-11-20T01:37:53;19.80;;;12.37;;
12958;SDS011;6544;51.666;6.634;2022-11-20T01:40:20;14.23;;;11.30;;
12958;SDS011;6544;51.666;6.634;2022-11-20T01:42:47;17.37;;;12.07;;
12958;SDS011;6544;51.666;6.634;2022-11-20T01:45:51;15.53;;;11.30;;
12958;SDS011;6544;51.666;6.634;2022-11-20T01:48:47;14.77;;;10.80;;
12958;SDS011;6544;51.666;6.634;2022-11-20T01:51:23;16.83;;;11.57;;
12958;SDS011;6544;51.666;6.634;2022-11-20T01:53:53;14.17;;;10.83;;
12958;SDS011;6544;51.666;6.634;2022-11-20T01:56:23;15.93;;;11.90;;
12958;SDS011;6544;51.666;6.634;2022-11-20T01:58:51;14.67;;;11.03;;
12958;SDS011;6544;51.666;6.634;2022-11-20T02:01:20;15.43;;;11.57;;
12958;SDS011;6544;51.666;6.634;2022-11-20T02:03:48;16.20;;;11.63;;
12958;SDS011;6544;51.666;6.634;2022-11-20T02:06:17;14.33;;;11.20;;
12958;SDS011;6544;51.666;6.634;2022-11-20T02:08:48;15.50;;;11.70;;
12958;SDS011;6544;51.666;6.634;2022-11-20T02:11:15;16.53;;;12.10;;
12958;SDS011;6544;51.666;6.634;2022-11-20T02:13:42;19.50;;;12.53;;
12958;SDS011;6544;51.666;6.634;2022-11-20T02:16:08;14.93;;;11.43;;
12958;SDS011;6544;51.666;6.634;2022-11-20T02:18:41;15.80;;;11.27;;
12958;SDS011;6544;51.666;6.634;2022-11-20T02:21:12;16.23;;;11.53;;
12958;SDS011;6544;51.666;6.634;2022-11-20T02:23:54;16.33;;;12.33;;
12958;SDS011;6544;51.666;6.634;2022-11-20T02:26:26;16.73;;;12.27;;
12958;SDS011;6544;51.666;6.634;2022-11-20T02:28:54;16.73;;;12.23;;
12958;SDS011;6544;51.666;6.634;2022-11-20T02:31:22;19.20;;;11.83;;
12958;SDS011;6544;51.666;6.634;2022-11-20T02:33:53;16.97;;;12.23;;
12958;SDS011;6544;51.666;6.634;2022-11-20T02:36:21;16.53;;;12.50;;
12958;SDS011;6544;51.666;6.634;2022-11-20T02:38:49;16.87;;;12.30;;
12958;SDS011;6544;51.666;6.634;2022-11-20T02:41:18;18.87;;;12.83;;
12958;SDS011;6544;51.666;6.634;2022-11-20T02:43:45;15.83;;;11.93;;
12958;SDS011;6544;51.666;6.634;2022-11-20T02:46:11;18.50;;;12.83;;
12958;SDS011;6544;51.666;6.634;2022-11-20T02:48:38;17.87;;;12.57;;
12958;SDS011;6544;51.666;6.634;2022-11-20T02:51:05;17.63;;;12.87;;
12958;SDS011;6544;51.666;6.634;2022-11-20T02:53:32;17.20;;;12.30;;
12958;SDS011;6544;51.666;6.634;2022-11-20T02:55:59;20.97;;;12.70;;
12958;SDS011;6544;51.666;6.634;2022-11-20T02:58:27;16.93;;;12.53;;
12958;SDS011;6544;51.666;6.634;2022-11-20T03:00:54;15.03;;;11.67;;
12958;SDS011;6544;51.666;6.634;2022-11-20T03:03:21;17.53;;;12.90;;
12958;SDS011;6544;51.666;6.634;2022-11-20T03:05:48;16.00;;;12.13;;
12958;SDS011;6544;51.666;6.634;2022-11-20T03:08:14;16.83;;;12.67;;
12958;SDS011;6544;51.666;6.634;2022-11-20T03:10:41;18.67;;;12.20;;
12958;SDS011;6544;51.666;6.634;2022-11-20T03:13:08;17.30;;;12.40;;
12958;SDS011;6544;51.666;6.634;2022-11-20T03:15:36;16.87;;;12.70;;
12958;SDS011;6544;51.666;6.634;2022-11-20T03:18:04;18.63;;;13.13;;
12958;SDS011;6544;51.666;6.634;2022-11-20T03:20:32;18.30;;;13.30;;
12958;SDS011;6544;51.666;6.634;2022-11-20T03:22:59;16.57;;;12.33;;
12958;SDS011;6544;51.666;6.634;2022-11-20T03:25:27;17.90;;;12.70;;
12958;SDS011;6544;51.666;6.634;2022-11-20T03:27:54;17.57;;;13.20;;
12958;SDS011;6544;51.666;6.634;2022-11-20T03:30:21;19.13;;;12.83;;
12958;SDS011;6544;51.666;6.634;2022-11-20T03:32:53;18.17;;;12.53;;
12958;SDS011;6544;51.666;6.634;2022-11-20T03:35:20;19.77;;;13.00;;
12958;SDS011;6544;51.666;6.634;2022-11-20T03:37:47;18.47;;;12.60;;
12958;SDS011;6544;51.666;6.634;2022-11-20T03:40:14;15.97;;;12.00;;
12958;SDS011;6544;51.666;6.634;2022-11-20T03:42:41;17.33;;;12.37;;
12958;SDS011;6544;51.666;6.634;2022-11-20T03:45:11;17.13;;;11.57;;
12958;SDS011;6544;51.666;6.634;2022-11-20T03:47:38;17.17;;;12.17;;
12958;SDS011;6544;51.666;6.634;2022-11-20T03:50:07;14.60;;;11.67;;
12958;SDS011;6544;51.666;6.634;2022-11-20T03:52:35;17.73;;;12.43;;
12958;SDS011;6544;51.666;6.634;2022-11-20T03:55:02;15.50;;;11.73;;
12958;SDS011;6544;51.666;6.634;2022-11-20T03:57:29;15.07;;;11.50;;
12958;SDS011;6544;51.666;6.634;2022-11-20T03:59:56;14.80;;;11.73;;
12958;SDS011;6544;51.666;6.634;2022-11-20T04:02:23;15.63;;;11.90;;
12958;SDS011;6544;51.666;6.634;2022-11-20T04:04:49;17.00;;;12.97;;
12958;SDS011;6544;51.666;6.634;2022-11-20T04:07:18;18.80;;;12.40;;
12958;SDS011;6544;51.666;6.634;2022-11-20T04:09:44;17.07;;;12.90;;
12958;SDS011;6544;51.666;6.634;2022-11-20T04:12:11;18.40;;;12.77;;
12958;SDS011;6544;51.666;6.634;2022-11-20T04:14:38;16.50;;;12.70;;
12958;SDS011;6544;51.666;6.634;2022-11-20T04:17:05;17.57;;;13.10;;
12958;SDS011;6544;51.666;6.634;2022-11-20T04:19:32;16.93;;;12.77;;
12958;SDS011;6544;51.666;6.634;2022-11-20T04:21:59;17.20;;;12.80;;
12958;SDS011;6544;51.666;6.634;2022-11-20T04:24:27;20.37;;;13.17;;
12958;SDS011;6544;51.666;6.634;2022-11-20T04:26:54;18.03;;;13.40;;
12958;SDS011;6544;51.666;6.634;2022-11-20T04:29:21;16.40;;;12.43;;
12958;SDS011;6544;51.666;6.634;2022-11-20T04:31:48;19.27;;;12.40;;
12958;SDS011;6544;51.666;6.634;2022-11-20T04:34:14;17.13;;;12.70;;
12958;SDS011;6544;51.666;6.634;2022-11-20T04:36:41;19.33;;;13.57;;
12958;SDS011;6544;51.666;6.634;2022-11-20T04:39:11;18.40;;;12.90;;
12958;SDS011;6544;51.666;6.634;2022-11-20T04:41:41;18.63;;;13.80;;
12958;SDS011;6544;51.666;6.634;2022-11-20T04:44:08;22.57;;;14.53;;
12958;SDS011;6544;51.666;6.634;2022-11-20T04:46:36;19.90;;;14.33;;
12958;SDS011;6544;51.666;6.634;2022-11-20T04:49:04;21.53;;;14.17;;
12958;SDS011;6544;51.666;6.634;2022-11-20T04:51:31;19.97;;;14.63;;
12958;SDS011;6544;51.666;6.634;2022-11-20T04:53:59;19.30;;;13.93;;
12958;SDS011;6544;51.666;6.634;2022-11-20T04:56:25;18.93;;;13.83;;
12958;SDS011;6544;51.666;6.634;2022-11-20T04:58:54;18.43;;;13.27;;
12958;SDS011;6544;51.666;6.634;2022-11-20T05:01:21;19.80;;;13.77;;
12958;SDS011;6544;51.666;6.634;2022-11-20T05:03:49;18.20;;;12.80;;
12958;SDS011;6544;51.666;6.634;2022-11-20T05:06:17;17.17;;;12.97;;
12958;SDS011;6544;51.666;6.634;2022-11-20T05:08:45;17.53;;;13.53;;
12958;SDS011;6544;51.666;6.634;2022-11-20T05:11:13;17.77;;;12.60;;
12958;SDS011;6544;51.666;6.634;2022-11-20T05:13:42;18.47;;;12.73;;
12958;SDS011;6544;51.666;6.634;2022-11-20T05:16:11;16.30;;;12.17;;
12958;SDS011;6544;51.666;6.634;2022-11-20T05:18:39;16.80;;;12.83;;
12958;SDS011;6544;51.666;6.634;2022-11-20T05:21:06;16.83;;;12.27;;
12958;SDS011;6544;51.666;6.634;2022-11-20T05:23:34;16.73;;;12.63;;
12958;SDS011;6544;51.666;6.634;2022-11-20T05:26:02;15.90;;;12.53;;
12958;SDS011;6544;51.666;6.634;2022-11-20T05:28:29;15.70;;;12.10;;
12958;SDS011;6544;51.666;6.634;2022-11-20T05:31:03;16.83;;;12.80;;
12958;SDS011;6544;51.666;6.634;2022-11-20T05:33:32;17.87;;;12.93;;
12958;SDS011;6544;51.666;6.634;2022-11-20T05:35:59;16.73;;;12.27;;
12958;SDS011;6544;51.666;6.634;2022-11-20T05:38:26;17.53;;;13.10;;
12958;SDS011;6544;51.666;6.634;2022-11-20T05:40:53;18.77;;;13.47;;
12958;SDS011;6544;51.666;6.634;2022-11-20T05:43:20;21.37;;;13.97;;
12958;SDS011;6544;51.666;6.634;2022-11-20T05:45:51;17.90;;;13.47;;
12958;SDS011;6544;51.666;6.634;2022-11-20T05:48:19;18.60;;;13.27;;
12958;SDS011;6544;51.666;6.634;2022-11-20T05:50:47;18.70;;;13.13;;
12958;SDS011;6544;51.666;6.634;2022-11-20T05:53:14;16.07;;;12.83;;
12958;SDS011;6544;51.666;6.634;2022-11-20T05:55:41;15.43;;;12.30;;
12958;SDS011;6544;51.666;6.634;2022-11-20T05:58:08;18.13;;;13.33;;
12958;SDS011;6544;51.666;6.634;2022-11-20T06:00:35;17.33;;;13.13;;
12958;SDS011;6544;51.666;6.634;2022-11-20T06:03:02;16.23;;;12.93;;
12958;SDS011;6544;51.666;6.634;2022-11-20T06:05:29;17.80;;;13.20;;
12958;SDS011;6544;51.666;6.634;2022-11-20T06:07:57;19.93;;;13.43;;
12958;SDS011;6544;51.666;6.634;2022-11-20T06:10:26;17.03;;;12.57;;
12958;SDS011;6544;51.666;6.634;2022-11-20T06:12:53;17.87;;;12.43;;
12958;SDS011;6544;51.666;6.634;2022-11-20T06:15:23;17.20;;;12.70;;
12958;SDS011;6544;51.666;6.634;2022-11-20T06:17:51;17.37;;;12.80;;
12958;SDS011;6544;51.666;6.634;2022-11-20T06:20:18;16.23;;;12.70;;
12958;SDS011;6544;51.666;6.634;2022-11-20T06:22:45;17.83;;;13.00;;
12958;SDS011;6544;51.666;6.634;2022-11-20T06:25:13;19.33;;;12.87;;
12958;SDS011;6544;51.666;6.634;2022-11-20T06:27:40;17.80;;;12.67;;
12958;SDS011;6544;51.666;6.634;2022-11-20T06:30:08;15.83;;;12.83;;
12958;SDS011;6544;51.666;6.634;2022-11-20T06:32:35;17.30;;;12.40;;
12958;SDS011;6544;51.666;6.634;2022-11-20T06:35:03;19.97;;;13.63;;
12958;SDS011;6544;51.666;6.634;2022-11-20T06:37:30;17.97;;;12.17;;
12958;SDS011;6544;51.666;6.634;2022-11-20T06:39:57;16.63;;;12.57;;
12958;SDS011;6544;51.666;6.634;2022-11-20T06:42:25;19.03;;;12.73;;
12958;SDS011;6544;51.666;6.634;2022-11-20T06:44:52;19.03;;;12.57;;
12958;SDS011;6544;51.666;6.634;2022-11-20T06:47:19;17.50;;;12.23;;
12958;SDS011;6544;51.666;6.634;2022-11-20T06:49:46;16.53;;;12.07;;
12958;SDS011;6544;51.666;6.634;2022-11-20T06:52:12;16.87;;;13.50;;
12958;SDS011;6544;51.666;6.634;2022-11-20T06:54:39;19.73;;;14.80;;
12958;SDS011;6544;51.666;6.634;2022-11-20T06:57:06;19.70;;;14.10;;
12958;SDS011;6544;51.666;6.634;2022-11-20T06:59:34;20.13;;;15.23;;
12958;SDS011;6544;51.666;6.634;2022-11-20T07:02:01;19.43;;;14.40;;
12958;SDS011;6544;51.666;6.634;2022-11-20T07:04:28;22.40;;;15.20;;
12958;SDS011;6544;51.666;6.634;2022-11-20T07:06:55;23.83;;;15.97;;
12958;SDS011;6544;51.666;6.634;2022-11-20T07:09:22;23.10;;;16.17;;
12958;SDS011;6544;51.666;6.634;2022-11-20T07:11:49;27.47;;;18.20;;
12958;SDS011;6544;51.666;6.634;2022-11-20T07:14:16;22.27;;;15.10;;
12958;SDS011;6544;51.666;6.634;2022-11-20T07:16:44;20.20;;;14.77;;
12958;SDS011;6544;51.666;6.634;2022-11-20T07:19:11;23.40;;;15.80;;
12958;SDS011;6544;51.666;6.634;2022-11-20T07:21:38;19.90;;;13.83;;
12958;SDS011;6544;51.666;6.634;2022-11-20T07:24:04;16.27;;;12.50;;
12958;SDS011;6544;51.666;6.634;2022-11-20T07:26:32;17.47;;;12.77;;
12958;SDS011;6544;51.666;6.634;2022-11-20T07:28:59;17.80;;;12.83;;
12958;SDS011;6544;51.666;6.634;2022-11-20T07:31:26;16.23;;;12.27;;
12958;SDS011;6544;51.666;6.634;2022-11-20T07:33:54;17.97;;;13.03;;
12958;SDS011;6544;51.666;6.634;2022-11-20T07:36:21;17.63;;;12.80;;
12958;SDS011;6544;51.666;6.634;2022-11-20T07:38:48;17.57;;;12.57;;
12958;SDS011;6544;51.666;6.634;2022-11-20T07:41:15;18.13;;;12.73;;
12958;SDS011;6544;51.666;6.634;2022-11-20T07:43:42;17.00;;;13.27;;
12958;SDS011;6544;51.666;6.634;2022-11-20T07:46:09;19.43;;;12.37;;
12958;SDS011;6544;51.666;6.634;2022-11-20T07:48:36;18.83;;;12.50;;
12958;SDS011;6544;51.666;6.634;2022-11-20T07:51:04;17.47;;;13.00;;
12958;SDS011;6544;51.666;6.634;2022-11-20T07:53:31;20.07;;;14.20;;
12958;SDS011;6544;51.666;6.634;2022-11-20T07:55:59;19.77;;;14.47;;
12958;SDS011;6544;51.666;6.634;2022-11-20T07:58:26;20.23;;;14.33;;
12958;SDS011;6544;51.666;6.634;2022-11-20T08:00:54;21.03;;;15.80;;
12958;SDS011;6544;51.666;6.634;2022-11-20T08:03:21;21.33;;;16.00;;
12958;SDS011;6544;51.666;6.634;2022-11-20T08:05:48;23.03;;;15.93;;
12958;SDS011;6544;51.666;6.634;2022-11-20T08:08:17;21.97;;;16.77;;
12958;SDS011;6544;51.666;6.634;2022-11-20T08:10:44;23.53;;;16.67;;
12958;SDS011;6544;51.666;6.634;2022-11-20T08:13:11;22.37;;;14.90;;
12958;SDS011;6544;51.666;6.634;2022-11-20T08:15:55;20.03;;;13.77;;
12958;SDS011;6544;51.666;6.634;2022-11-20T08:18:22;19.00;;;14.00;;
12958;SDS011;6544;51.666;6.634;2022-11-20T08:20:49;18.10;;;13.47;;
12958;SDS011;6544;51.666;6.634;2022-11-20T08:23:17;18.87;;;14.10;;
12958;SDS011;6544;51.666;6.634;2022-11-20T08:25:48;18.83;;;13.77;;
12958;SDS011;6544;51.666;6.634;2022-11-20T08:28:16;17.73;;;13.70;;
12958;SDS011;6544;51.666;6.634;2022-11-20T08:30:42;18.30;;;13.83;;
12958;SDS011;6544;51.666;6.634;2022-11-20T08:33:10;20.00;;;14.40;;
12958;SDS011;6544;51.666;6.634;2022-11-20T08:35:37;18.40;;;13.50;;
12958;SDS011;6544;51.666;6.634;2022-11-20T08:38:06;20.30;;;14.07;;
12958;SDS011;6544;51.666;6.634;2022-11-20T08:40:34;20.03;;;15.30;;
12958;SDS011;6544;51.666;6.634;2022-11-20T08:43:01;20.20;;;14.43;;
12958;SDS011;6544;51.666;6.634;2022-11-20T08:45:28;20.33;;;13.73;;
12958;SDS011;6544;51.666;6.634;2022-11-20T08:47:59;19.77;;;14.80;;
12958;SDS011;6544;51.666;6.634;2022-11-20T08:50:27;19.53;;;14.20;;
12958;SDS011;6544;51.666;6.634;2022-11-20T08:52:54;19.37;;;14.53;;
12958;SDS011;6544;51.666;6.634;2022-11-20T08:55:21;23.47;;;15.07;;
12958;SDS011;6544;51.666;6.634;2022-11-20T08:57:49;20.47;;;14.27;;
12958;SDS011;6544;51.666;6.634;2022-11-20T09:00:16;18.80;;;14.70;;
12958;SDS011;6544;51.666;6.634;2022-11-20T09:02:43;21.83;;;14.93;;
12958;SDS011;6544;51.666;6.634;2022-11-20T09:05:10;20.77;;;15.17;;
12958;SDS011;6544;51.666;6.634;2022-11-20T09:07:37;20.63;;;15.33;;
12958;SDS011;6544;51.666;6.634;2022-11-20T09:10:05;21.57;;;15.47;;
12958;SDS011;6544;51.666;6.634;2022-11-20T09:12:33;20.63;;;15.73;;
12958;SDS011;6544;51.666;6.634;2022-11-20T09:15:01;20.90;;;15.90;;
12958;SDS011;6544;51.666;6.634;2022-11-20T09:17:28;22.20;;;16.67;;
12958;SDS011;6544;51.666;6.634;2022-11-20T09:19:55;20.57;;;15.97;;
12958;SDS011;6544;51.666;6.634;2022-11-20T09:22:22;23.47;;;16.83;;
12958;SDS011;6544;51.666;6.634;2022-11-20T09:24:49;22.10;;;16.40;;
12958;SDS011;6544;51.666;6.634;2022-11-20T09:27:15;25.80;;;17.40;;
12958;SDS011;6544;51.666;6.634;2022-11-20T09:29:45;24.50;;;17.80;;
12958;SDS011;6544;51.666;6.634;2022-11-20T09:32:14;24.20;;;18.30;;
12958;SDS011;6544;51.666;6.634;2022-11-20T09:34:41;26.10;;;18.90;;
12958;SDS011;6544;51.666;6.634;2022-11-20T09:37:07;26.07;;;19.00;;
12958;SDS011;6544;51.666;6.634;2022-11-20T09:39:34;28.90;;;19.57;;
12958;SDS011;6544;51.666;6.634;2022-11-20T09:42:07;26.07;;;20.17;;
12958;SDS011;6544;51.666;6.634;2022-11-20T09:44:57;28.63;;;20.10;;
12958;SDS011;6544;51.666;6.634;2022-11-20T09:47:41;26.93;;;20.50;;
12958;SDS011;6544;51.666;6.634;2022-11-20T09:50:23;30.00;;;20.80;;
12958;SDS011;6544;51.666;6.634;2022-11-20T09:52:57;29.43;;;21.23;;
12958;SDS011;6544;51.666;6.634;2022-11-20T09:55:36;27.77;;;20.77;;
12958;SDS011;6544;51.666;6.634;2022-11-20T09:58:05;28.17;;;20.53;;
12958;SDS011;6544;51.666;6.634;2022-11-20T10:00:32;33.33;;;22.57;;
12958;SDS011;6544;51.666;6.634;2022-11-20T10:03:03;28.33;;;20.67;;
12958;SDS011;6544;51.666;6.634;2022-11-20T10:05:40;29.63;;;21.47;;
12958;SDS011;6544;51.666;6.634;2022-11-20T10:08:13;30.20;;;21.30;;
12958;SDS011;6544;51.666;6.634;2022-11-20T10:10:43;33.13;;;21.87;;
12958;SDS011;6544;51.666;6.634;2022-11-20T10:13:16;32.97;;;22.97;;
12958;SDS011;6544;51.666;6.634;2022-11-20T10:15:53;28.93;;;21.83;;
12958;SDS011;6544;51.666;6.634;2022-11-20T10:18:33;29.43;;;21.37;;
12958;SDS011;6544;51.666;6.634;2022-11-20T10:21:12;29.30;;;21.73;;
12958;SDS011;6544;51.666;6.634;2022-11-20T10:23:53;27.83;;;20.83;;
12958;SDS011;6544;51.666;6.634;2022-11-20T10:26:34;27.20;;;20.53;;
12958;SDS011;6544;51.666;6.634;2022-11-20T10:29:10;30.33;;;20.83;;
12958;SDS011;6544;51.666;6.634;2022-11-20T10:31:40;26.23;;;19.60;;
12958;SDS011;6544;51.666;6.634;2022-11-20T10:34:15;27.23;;;20.33;;
12958;SDS011;6544;51.666;6.634;2022-11-20T10:36:47;28.10;;;19.77;;
12958;SDS011;6544;51.666;6.634;2022-11-20T10:39:20;28.53;;;21.57;;
12958;SDS011;6544;51.666;6.634;2022-11-20T10:41:54;27.57;;;20.40;;
12958;SDS011;6544;51.666;6.634;2022-11-20T10:44:25;28.00;;;21.37;;
12958;SDS011;6544;51.666;6.634;2022-11-20T10:47:12;27.40;;;20.63;;
12958;SDS011;6544;51.666;6.634;2022-11-20T10:49:43;28.07;;;20.03;;
12958;SDS011;6544;51.666;6.634;2022-11-20T10:52:17;27.07;;;19.90;;
12958;SDS011;6544;51.666;6.634;2022-11-20T10:54:54;25.40;;;19.73;;
12958;SDS011;6544;51.666;6.634;2022-11-20T10:57:44;25.20;;;18.63;;
12958;SDS011;6544;51.666;6.634;2022-11-20T11:00:18;25.47;;;18.97;;
12958;SDS011;6544;51.666;6.634;2022-11-20T11:02:46;24.27;;;18.30;;
12958;SDS011;6544;51.666;6.634;2022-11-20T11:05:18;23.47;;;18.20;;
12958;SDS011;6544;51.666;6.634;2022-11-20T11:07:53;22.77;;;17.60;;
12958;SDS011;6544;51.666;6.634;2022-11-20T11:10:23;22.47;;;17.60;;
12958;SDS011;6544;51.666;6.634;2022-11-20T11:12:54;24.40;;;17.10;;
12958;SDS011;6544;51.666;6.634;2022-11-20T11:15:25;23.17;;;17.50;;
12958;SDS011;6544;51.666;6.634;2022-11-20T11:17:53;21.10;;;16.33;;
12958;SDS011;6544;51.666;6.634;2022-11-20T11:20:22;19.17;;;14.83;;
12958;SDS011;6544;51.666;6.634;2022-11-20T11:22:50;18.97;;;14.77;;
12958;SDS011;6544;51.666;6.634;2022-11-20T11:25:19;19.07;;;15.10;;
12958;SDS011;6544;51.666;6.634;2022-11-20T11:27:55;18.63;;;15.13;;
12958;SDS011;6544;51.666;6.634;2022-11-20T11:30:23;18.83;;;15.70;;
12958;SDS011;6544;51.666;6.634;2022-11-20T11:33:02;18.23;;;15.67;;
12958;SDS011;6544;51.666;6.634;2022-11-20T11:35:32;20.80;;;15.93;;
12958;SDS011;6544;51.666;6.634;2022-11-20T11:38:02;19.67;;;15.83;;
12958;SDS011;6544;51.666;6.634;2022-11-20T11:40:32;20.40;;;16.50;;
12958;SDS011;6544;51.666;6.634;2022-11-20T11:43:05;20.87;;;16.00;;
12958;SDS011;6544;51.666;6.634;2022-11-20T11:45:54;21.37;;;16.33;;
12958;SDS011;6544;51.666;6.634;2022-11-20T11:48:21;22.97;;;17.10;;
12958;SDS011;6544;51.666;6.634;2022-11-20T11:50:50;19.50;;;16.57;;
12958;SDS011;6544;51.666;6.634;2022-11-20T11:53:17;20.53;;;16.10;;
12958;SDS011;6544;51.666;6.634;2022-11-20T11:55:46;21.63;;;16.83;;
12958;SDS011;6544;51.666;6.634;2022-11-20T11:58:28;21.33;;;17.30;;
12958;SDS011;6544;51.666;6.634;2022-11-20T12:01:07;20.13;;;16.97;;
12958;SDS011;6544;51.666;6.634;2022-11-20T12:03:38;23.00;;;16.37;;
12958;SDS011;6544;51.666;6.634;2022-11-20T12:06:10;23.57;;;17.57;;
12958;SDS011;6544;51.666;6.634;2022-11-20T12:08:41;24.17;;;18.40;;
12958;SDS011;6544;51.666;6.634;2022-11-20T12:11:13;21.67;;;17.20;;
12958;SDS011;6544;51.666;6.634;2022-11-20T12:13:48;23.23;;;18.60;;
12958;SDS011;6544;51.666;6.634;2022-11-20T12:16:20;22.60;;;18.60;;
12958;SDS011;6544;51.666;6.634;2022-11-20T12:18:48;23.23;;;18.03;;
12958;SDS011;6544;51.666;6.634;2022-11-20T12:21:24;21.90;;;18.30;;
12958;SDS011;6544;51.666;6.634;2022-11-20T12:24:16;23.07;;;18.07;;
12958;SDS011;6544;51.666;6.634;2022-11-20T12:27:09;28.37;;;18.57;;
12958;SDS011;6544;51.666;6.634;2022-11-20T12:30:12;24.17;;;18.73;;
12958;SDS011;6544;51.666;6.634;2022-11-20T12:33:03;23.77;;;18.33;;
12958;SDS011;6544;51.666;6.634;2022-11-20T12:35:51;25.03;;;19.30;;
12958;SDS011;6544;51.666;6.634;2022-11-20T12:41:40;23.93;;;19.17;;
12958;SDS011;6544;51.666;6.634;2022-11-20T12:44:44;23.57;;;18.13;;
12958;SDS011;6544;51.666;6.634;2022-11-20T12:47:47;23.93;;;19.07;;
12958;SDS011;6544;51.666;6.634;2022-11-20T12:50:28;24.33;;;19.13;;
12958;SDS011;6544;51.666;6.634;2022-11-20T12:53:03;25.43;;;18.67;;
12958;SDS011;6544;51.666;6.634;2022-11-20T12:55:38;25.27;;;19.60;;
12958;SDS011;6544;51.666;6.634;2022-11-20T12:58:15;26.90;;;19.70;;
12958;SDS011;6544;51.666;6.634;2022-11-20T13:00:52;24.80;;;19.07;;
12958;SDS011;6544;51.666;6.634;2022-11-20T13:03:29;25.00;;;18.03;;
12958;SDS011;6544;51.666;6.634;2022-11-20T13:06:10;26.00;;;19.20;;
12958;SDS011;6544;51.666;6.634;2022-11-20T13:08:41;25.30;;;19.40;;
12958;SDS011;6544;51.666;6.634;2022-11-20T13:11:16;30.73;;;22.10;;
12958;SDS011;6544;51.666;6.634;2022-11-20T13:13:53;28.67;;;20.20;;
12958;SDS011;6544;51.666;6.634;2022-11-20T13:16:48;33.47;;;22.23;;
12958;SDS011;6544;51.666;6.634;2022-11-20T13:19:21;30.23;;;21.37;;
12958;SDS011;6544;51.666;6.634;2022-11-20T13:21:48;27.90;;;20.20;;
12958;SDS011;6544;51.666;6.634;2022-11-20T13:24:25;26.63;;;20.33;;
12958;SDS011;6544;51.666;6.634;2022-11-20T13:27:04;30.07;;;20.93;;
12958;SDS011;6544;51.666;6.634;2022-11-20T13:29:46;29.43;;;21.60;;
12958;SDS011;6544;51.666;6.634;2022-11-20T13:32:25;30.03;;;21.20;;
12958;SDS011;6544;51.666;6.634;2022-11-20T13:34:58;26.97;;;20.67;;
12958;SDS011;6544;51.666;6.634;2022-11-20T13:37:30;29.50;;;21.33;;
12958;SDS011;6544;51.666;6.634;2022-11-20T13:42:55;29.43;;;21.20;;
12958;SDS011;6544;51.666;6.634;2022-11-20T13:45:27;29.37;;;21.73;;
12958;SDS011;6544;51.666;6.634;2022-11-20T13:47:56;31.10;;;21.10;;
12958;SDS011;6544;51.666;6.634;2022-11-20T13:50:31;31.67;;;22.13;;
12958;SDS011;6544;51.666;6.634;2022-11-20T13:53:09;30.20;;;22.63;;
12958;SDS011;6544;51.666;6.634;2022-11-20T13:55:49;33.50;;;23.87;;
12958;SDS011;6544;51.666;6.634;2022-11-20T13:58:27;40.90;;;26.80;;
12958;SDS011;6544;51.666;6.634;2022-11-20T14:01:13;32.97;;;23.63;;
12958;SDS011;6544;51.666;6.634;2022-11-20T14:03:43;32.17;;;23.57;;
12958;SDS011;6544;51.666;6.634;2022-11-20T14:06:11;30.50;;;23.60;;
12958;SDS011;6544;51.666;6.634;2022-11-20T14:08:48;32.27;;;22.17;;
12958;SDS011;6544;51.666;6.634;2022-11-20T14:11:16;30.47;;;22.90;;
12958;SDS011;6544;51.666;6.634;2022-11-20T14:13:53;28.43;;;22.17;;
12958;SDS011;6544;51.666;6.634;2022-11-20T14:16:22;30.70;;;21.43;;
12958;SDS011;6544;51.666;6.634;2022-11-20T14:18:50;29.40;;;22.27;;
12958;SDS011;6544;51.666;6.634;2022-11-20T14:21:24;28.77;;;21.87;;
12958;SDS011;6544;51.666;6.634;2022-11-20T14:23:53;28.83;;;21.70;;
12958;SDS011;6544;51.666;6.634;2022-11-20T14:26:28;30.00;;;22.53;;
12958;SDS011;6544;51.666;6.634;2022-11-20T14:28:57;29.93;;;21.83;;
12958;SDS011;6544;51.666;6.634;2022-11-20T14:31:24;33.03;;;22.87;;
12958;SDS011;6544;51.666;6.634;2022-11-20T14:33:53;32.07;;;23.27;;
12958;SDS011;6544;51.666;6.634;2022-11-20T14:36:21;32.43;;;22.87;;
12958;SDS011;6544;51.666;6.634;2022-11-20T14:38:50;29.67;;;21.47;;
12958;SDS011;6544;51.666;6.634;2022-11-20T14:41:18;29.97;;;22.17;;
12958;SDS011;6544;51.666;6.634;2022-11-20T14:43:55;29.63;;;23.00;;
12958;SDS011;6544;51.666;6.634;2022-11-20T14:46:25;33.37;;;23.20;;
12958;SDS011;6544;51.666;6.634;2022-11-20T14:48:54;31.37;;;22.83;;
12958;SDS011;6544;51.666;6.634;2022-11-20T14:51:23;30.27;;;22.80;;
12958;SDS011;6544;51.666;6.634;2022-11-20T14:53:54;33.40;;;23.40;;
12958;SDS011;6544;51.666;6.634;2022-11-20T14:56:21;31.63;;;22.90;;
12958;SDS011;6544;51.666;6.634;2022-11-20T14:58:55;31.50;;;23.37;;